createdAt,value
2019-02-24T00:02:12.650Z,5.24
2019-02-24T00:07:16.339Z,5.26
2019-02-24T00:12:18.462Z,5.32
2019-02-24T00:17:23.190Z,5.16
2019-02-24T00:22:31.583Z,5.20
2019-02-24T00:27:33.618Z,5.09
2019-02-24T00:32:35.692Z,4.90
2019-02-24T00:37:40.415Z,5.14
2019-02-24T00:42:44.850Z,5.16
2019-02-24T00:47:49.668Z,5.11
2019-02-24T00:52:51.919Z,4.92
2019-02-24T00:57:56.982Z,4.97
2019-02-24T01:02:59.178Z,4.83
2019-02-24T01:08:03.051Z,4.86
2019-02-24T01:13:05.305Z,4.53
2019-02-24T01:18:09.192Z,4.58
2019-02-24T01:23:17.882Z,4.50
2019-02-24T01:28:25.365Z,4.42
2019-02-24T01:33:28.428Z,4.46
2019-02-24T01:38:38.186Z,4.73
2019-02-24T01:43:42.659Z,4.38
2019-02-24T01:48:44.652Z,4.30
2019-02-24T01:53:46.878Z,4.36
2019-02-24T01:58:48.936Z,4.40
2019-02-24T02:03:56.402Z,4.41
2019-02-24T02:08:58.470Z,4.43
2019-02-24T02:14:00.494Z,4.13
2019-02-24T02:19:02.598Z,4.07
2019-02-24T02:24:04.680Z,4.02
2019-02-24T02:29:12.799Z,3.91
2019-02-24T02:34:17.147Z,4.09
2019-02-24T02:39:20.834Z,3.96
2019-02-24T02:44:23.919Z,4.11
2019-02-24T02:49:25.918Z,3.79
2019-02-24T02:54:28.170Z,3.89
2019-02-24T02:59:31.306Z,3.74
2019-02-24T03:04:33.790Z,3.74
2019-02-24T03:09:38.395Z,3.80
2019-02-24T03:14:43.436Z,3.48
2019-02-24T03:19:47.786Z,3.45
2019-02-24T03:24:49.887Z,3.53
2019-02-24T03:29:51.976Z,3.43
2019-02-24T03:34:54.199Z,3.21
2019-02-24T03:39:56.266Z,3.11
2019-02-24T03:44:58.293Z,3.13
2019-02-24T03:50:00.375Z,3.27
2019-02-24T03:55:02.846Z,3.32
2019-02-24T04:00:05.134Z,3.15
2019-02-24T04:05:07.136Z,3.07
2019-02-24T04:10:09.159Z,3.04
2019-02-24T04:15:11.519Z,2.87
2019-02-24T04:20:19.899Z,2.69
2019-02-24T04:25:32.422Z,2.75
2019-02-24T04:30:34.666Z,2.63
2019-02-24T04:35:37.997Z,2.45
2019-02-24T04:40:43.229Z,2.43
2019-02-24T04:45:48.036Z,2.19
2019-02-24T04:50:50.036Z,2.03
2019-02-24T04:55:54.905Z,2.33
2019-02-24T05:00:59.201Z,2.47
2019-02-24T05:06:05.252Z,2.75
2019-02-24T05:11:07.283Z,2.71
2019-02-24T05:16:09.362Z,2.69
2019-02-24T05:21:15.341Z,2.45
2019-02-24T05:26:17.396Z,2.52
2019-02-24T05:31:20.624Z,2.48
2019-02-24T05:36:27.933Z,2.52
2019-02-24T05:41:30.104Z,2.67
2019-02-24T05:46:32.686Z,2.60
2019-02-24T05:51:37.499Z,2.42
2019-02-24T05:56:45.319Z,2.61
2019-02-24T06:01:47.932Z,2.84
2019-02-24T06:06:51.086Z,2.81
2019-02-24T06:11:59.129Z,2.46
2019-02-24T06:17:09.804Z,2.49
2019-02-24T06:22:12.839Z,2.49
2019-02-24T06:27:17.362Z,2.13
2019-02-24T06:32:23.276Z,2.26
2019-02-24T06:37:26.486Z,2.00
2019-02-24T06:42:28.526Z,1.78
2019-02-24T06:47:33.754Z,1.97
2019-02-24T06:52:37.901Z,2.08
2019-02-24T06:57:43.378Z,1.80
2019-02-24T07:02:47.802Z,1.86
2019-02-24T07:07:50.197Z,1.92
2019-02-24T07:12:54.546Z,1.75
2019-02-24T07:17:59.391Z,2.01
2019-02-24T07:23:05.414Z,2.03
2019-02-24T07:28:07.452Z,2.50
2019-02-24T07:33:09.535Z,2.33
2019-02-24T07:38:20.668Z,2.18
2019-02-24T07:43:22.786Z,2.48
2019-02-24T07:48:27.527Z,2.74
2019-02-24T07:53:29.775Z,3.02
2019-02-24T07:58:31.943Z,3.39
2019-02-24T08:03:34.014Z,3.59
2019-02-24T08:08:38.779Z,4.30
2019-02-24T08:13:46.230Z,4.20
2019-02-24T08:18:55.361Z,4.24
2019-02-24T08:23:59.560Z,4.47
2019-02-24T08:29:01.583Z,4.81
2019-02-24T08:34:10.543Z,4.99
2019-02-24T08:39:13.893Z,4.92
2019-02-24T08:44:18.458Z,5.07
2019-02-24T08:49:21.273Z,5.17
2019-02-24T08:54:25.627Z,5.25
2019-02-24T08:59:27.661Z,5.40
2019-02-24T09:04:29.691Z,5.69
2019-02-24T09:09:31.870Z,8.24
2019-02-24T09:14:40.205Z,6.03
2019-02-24T09:19:44.625Z,6.47
2019-02-24T09:24:46.939Z,6.43
2019-02-24T09:29:49.122Z,6.44
2019-02-24T09:34:51.574Z,6.37
2019-02-24T09:39:55.922Z,7.13
2019-02-24T09:44:58.245Z,7.16
2019-02-24T09:50:00.353Z,6.89
2019-02-24T09:55:04.030Z,7.23
2019-02-24T10:00:10.892Z,7.29
2019-02-24T10:05:12.929Z,7.61
2019-02-24T10:10:17.191Z,7.81
2019-02-24T10:15:19.226Z,8.08
2019-02-24T10:20:21.233Z,7.95
2019-02-24T10:25:23.248Z,8.18
2019-02-24T10:30:26.491Z,8.28
2019-02-24T10:35:31.839Z,8.30
2019-02-24T10:40:34.131Z,8.43
2019-02-24T10:45:41.082Z,8.61
2019-02-24T10:50:43.566Z,8.69
2019-02-24T10:55:50.121Z,8.74
2019-02-24T11:00:52.187Z,9.02
2019-02-24T11:05:54.240Z,9.15
2019-02-24T11:10:56.470Z,9.33
2019-02-24T11:15:58.479Z,9.42
2019-02-24T11:21:02.995Z,9.43
2019-02-24T11:26:05.063Z,9.57
2019-02-24T11:31:07.206Z,9.61
2019-02-24T11:36:09.224Z,9.83
2019-02-24T11:41:11.352Z,9.77
2019-02-24T11:46:15.326Z,9.77
2019-02-24T11:51:17.379Z,9.82
2019-02-24T11:56:19.767Z,10.04
2019-02-24T12:01:22.069Z,9.86
2019-02-24T12:06:27.127Z,9.96
2019-02-24T12:11:29.463Z,10.07
2019-02-24T12:16:31.581Z,10.23
2019-02-24T12:21:33.608Z,10.56
2019-02-24T12:26:38.655Z,10.61
2019-02-24T12:31:40.742Z,10.83
2019-02-24T12:36:43.271Z,10.81
2019-02-24T12:41:45.319Z,10.92
2019-02-24T12:46:49.902Z,11.10
2019-02-24T12:51:54.254Z,11.32
2019-02-24T12:56:56.482Z,11.57
2019-02-24T13:02:05.518Z,11.53
2019-02-24T13:07:04.590Z,12.28
2019-02-24T13:12:06.668Z,11.82
2019-02-24T13:29:12.375Z,12.24
2019-02-24T13:34:14.598Z,12.04
2019-02-24T13:39:16.744Z,12.09
2019-02-24T13:44:18.812Z,12.16
2019-02-24T13:49:20.824Z,12.35
2019-02-24T13:54:23.114Z,12.40
2019-02-24T13:59:25.279Z,12.57
2019-02-24T14:04:27.325Z,12.58
2019-02-24T14:09:29.428Z,12.49
2019-02-24T14:14:31.558Z,12.74
2019-02-24T14:19:33.534Z,12.96
2019-02-24T14:24:37.432Z,12.82
2019-02-24T14:29:39.538Z,12.69
2019-02-24T14:34:41.576Z,12.52
2019-02-24T14:39:43.937Z,12.96
2019-02-24T14:44:45.963Z,13.20
2019-02-24T14:49:48.140Z,12.84
2019-02-24T14:54:56.129Z,12.77
2019-02-24T14:59:58.279Z,12.90
2019-02-24T15:05:00.558Z,12.99
2019-02-24T15:10:03.737Z,12.96
2019-02-24T15:15:07.385Z,12.95
2019-02-24T15:20:14.008Z,13.24
2019-02-24T15:25:16.541Z,13.20
2019-02-24T15:30:24.459Z,13.13
2019-02-24T15:35:27.106Z,13.30
2019-02-24T15:40:31.780Z,13.27
2019-02-24T15:45:36.447Z,13.25
2019-02-24T15:50:38.582Z,13.33
2019-02-24T15:55:40.695Z,13.24
2019-02-24T16:00:42.719Z,13.14
2019-02-24T16:05:44.950Z,13.12
2019-02-24T16:10:47.025Z,13.20
2019-02-24T16:15:49.198Z,13.20
2019-02-24T16:20:51.451Z,13.14
2019-02-24T16:25:53.744Z,12.93
2019-02-24T16:30:55.752Z,12.74
2019-02-24T16:35:59.708Z,12.80
2019-02-24T16:41:01.739Z,12.56
2019-02-24T16:46:03.820Z,12.59
2019-02-24T16:51:05.964Z,12.43
2019-02-24T16:56:08.132Z,12.28
2019-02-24T17:01:10.710Z,12.01
2019-02-24T17:06:12.868Z,12.01
2019-02-24T17:11:14.903Z,11.85
2019-02-24T17:16:17.282Z,11.95
2019-02-24T17:21:22.375Z,11.57
2019-02-24T17:26:24.570Z,11.40
2019-02-24T17:31:29.414Z,11.41
2019-02-24T17:36:31.718Z,11.11
2019-02-24T17:41:33.740Z,10.95
2019-02-24T17:46:37.095Z,10.89
2019-02-24T17:51:40.906Z,10.66
2019-02-24T17:56:43.947Z,10.50
2019-02-24T18:01:45.954Z,10.44
2019-02-24T18:06:48.129Z,10.12
2019-02-24T18:11:50.125Z,10.06
2019-02-24T18:16:53.783Z,10.02
2019-02-24T18:21:57.189Z,10.04
2019-02-24T18:26:59.262Z,9.90
2019-02-24T18:32:04.047Z,9.74
2019-02-24T18:37:06.067Z,9.61
2019-02-24T18:42:08.093Z,9.77
2019-02-24T18:47:10.109Z,9.48
2019-02-24T18:52:16.137Z,9.60
2019-02-24T18:57:18.369Z,9.57
2019-02-24T19:02:23.432Z,9.28
2019-02-24T19:07:25.699Z,9.33
2019-02-24T19:12:27.757Z,9.29
2019-02-24T19:17:30.967Z,9.19
2019-02-24T19:22:32.972Z,9.07
2019-02-24T19:27:37.014Z,8.98
2019-02-24T19:32:40.260Z,8.64
2019-02-24T19:37:44.061Z,8.50
2019-02-24T19:42:46.067Z,8.53
2019-02-24T19:47:49.515Z,8.55
2019-02-24T19:52:51.645Z,8.45
2019-02-24T19:57:56.901Z,8.33
2019-02-24T20:03:01.115Z,8.11
2019-02-24T20:08:03.397Z,8.25
2019-02-24T20:13:05.378Z,7.96
2019-02-24T20:18:10.084Z,7.85
2019-02-24T20:23:12.111Z,7.61
2019-02-24T20:28:14.114Z,7.58
2019-02-24T20:33:16.195Z,7.46
2019-02-24T20:38:18.552Z,7.21
2019-02-24T20:43:20.645Z,7.09
2019-02-24T20:48:23.293Z,7.15
2019-02-24T20:53:25.364Z,6.99
2019-02-24T20:58:29.495Z,6.91
2019-02-24T21:03:31.600Z,6.98
2019-02-24T21:08:33.882Z,6.78
2019-02-24T21:13:35.867Z,6.92
2019-02-24T21:18:43.930Z,6.70
2019-02-24T21:23:46.051Z,6.73
2019-02-24T21:28:49.723Z,6.70
2019-02-24T21:33:51.754Z,6.47
2019-02-24T21:38:54.060Z,6.55
2019-02-24T21:43:58.858Z,6.20
2019-02-24T21:49:01.634Z,6.29
2019-02-24T21:54:03.647Z,6.19
2019-02-24T21:59:06.535Z,6.12
2019-02-24T22:04:08.654Z,5.88
2019-02-24T22:09:11.510Z,5.83
2019-02-24T22:14:15.747Z,5.93
2019-02-24T22:19:19.222Z,5.57
2019-02-24T22:24:21.301Z,5.68
2019-02-24T22:29:23.347Z,5.54
2019-02-24T22:34:25.366Z,5.43
2019-02-24T22:39:27.604Z,5.34
2019-02-24T22:44:32.200Z,5.59
2019-02-24T22:49:34.436Z,5.34
2019-02-24T22:54:36.434Z,5.48
2019-02-24T22:59:38.580Z,5.30
2019-02-24T23:04:43.388Z,4.87
2019-02-24T23:09:47.444Z,5.01
2019-02-24T23:14:50.775Z,5.02
2019-02-24T23:19:52.981Z,4.98
2019-02-24T23:24:56.115Z,4.91
2019-02-24T23:29:59.567Z,5.38
2019-02-24T23:35:07.197Z,4.81
2019-02-24T23:40:09.155Z,4.65
2019-02-24T23:45:11.180Z,4.92
2019-02-24T23:50:15.051Z,4.78
2019-02-24T23:55:18.229Z,4.83
